sensor_id;sensor_type;location;lat;lon;timestamp;P1;durP1;ratioP1;P2;durP2;ratioP2
30337;SDS011;17143;51.888;5.408;2023-06-04T00:13:59;1.20;;;0.80;;
30337;SDS011;17143;51.888;5.408;2023-06-04T00:29:02;1.30;;;1.17;;
30337;SDS011;17143;51.888;5.408;2023-06-04T00:44:04;1.80;;;1.00;;
30337;SDS011;17143;51.888;5.408;2023-06-04T00:59:06;1.93;;;1.00;;
30337;SDS011;17143;51.888;5.408;2023-06-04T01:14:09;1.17;;;0.80;;
30337;SDS011;17143;51.888;5.408;2023-06-04T01:29:11;1.20;;;0.80;;
30337;SDS011;17143;51.888;5.408;2023-06-04T01:44:13;1.17;;;0.70;;
30337;SDS011;17143;51.888;5.408;2023-06-04T01:59:15;1.43;;;1.10;;
30337;SDS011;17143;51.888;5.408;2023-06-04T02:14:18;2.50;;;1.00;;
30337;SDS011;17143;51.888;5.408;2023-06-04T02:29:20;2.47;;;1.03;;
30337;SDS011;17143;51.888;5.408;2023-06-04T02:44:22;3.13;;;1.03;;
30337;SDS011;17143;51.888;5.408;2023-06-04T02:59:24;1.33;;;0.80;;
30337;SDS011;17143;51.888;5.408;2023-06-04T03:14:26;1.00;;;0.97;;
30337;SDS011;17143;51.888;5.408;2023-06-04T03:29:28;1.30;;;1.20;;
30337;SDS011;17143;51.888;5.408;2023-06-04T03:44:31;3.13;;;1.03;;
30337;SDS011;17143;51.888;5.408;2023-06-04T03:59:33;1.10;;;1.00;;
30337;SDS011;17143;51.888;5.408;2023-06-04T04:14:35;3.67;;;1.30;;
30337;SDS011;17143;51.888;5.408;2023-06-04T04:29:38;2.83;;;0.93;;
30337;SDS011;17143;51.888;5.408;2023-06-04T04:44:41;3.30;;;1.20;;
30337;SDS011;17143;51.888;5.408;2023-06-04T04:59:44;2.00;;;1.20;;
30337;SDS011;17143;51.888;5.408;2023-06-04T05:14:47;1.80;;;1.10;;
30337;SDS011;17143;51.888;5.408;2023-06-04T05:29:50;2.27;;;1.07;;
30337;SDS011;17143;51.888;5.408;2023-06-04T05:44:52;1.63;;;1.20;;
30337;SDS011;17143;51.888;5.408;2023-06-04T05:59:57;1.33;;;1.20;;
30337;SDS011;17143;51.888;5.408;2023-06-04T06:14:59;1.30;;;1.10;;
30337;SDS011;17143;51.888;5.408;2023-06-04T06:30:01;1.97;;;0.83;;
30337;SDS011;17143;51.888;5.408;2023-06-04T06:45:04;3.53;;;1.13;;
30337;SDS011;17143;51.888;5.408;2023-06-04T07:00:09;3.77;;;1.10;;
30337;SDS011;17143;51.888;5.408;2023-06-04T07:15:12;3.30;;;1.13;;
30337;SDS011;17143;51.888;5.408;2023-06-04T07:30:14;3.20;;;1.40;;
30337;SDS011;17143;51.888;5.408;2023-06-04T07:45:16;2.87;;;1.23;;
30337;SDS011;17143;51.888;5.408;2023-06-04T08:00:18;1.60;;;1.20;;
30337;SDS011;17143;51.888;5.408;2023-06-04T08:15:20;3.30;;;1.10;;
30337;SDS011;17143;51.888;5.408;2023-06-04T08:30:22;1.20;;;1.00;;
30337;SDS011;17143;51.888;5.408;2023-06-04T08:45:24;2.53;;;1.00;;
30337;SDS011;17143;51.888;5.408;2023-06-04T09:00:27;3.13;;;1.17;;
30337;SDS011;17143;51.888;5.408;2023-06-04T09:15:29;1.07;;;0.80;;
30337;SDS011;17143;51.888;5.408;2023-06-04T09:30:31;1.30;;;0.80;;
30337;SDS011;17143;51.888;5.408;2023-06-04T09:45:33;0.80;;;0.70;;
30337;SDS011;17143;51.888;5.408;2023-06-04T10:00:36;0.90;;;0.70;;
30337;SDS011;17143;51.888;5.408;2023-06-04T10:15:38;0.93;;;0.73;;
30337;SDS011;17143;51.888;5.408;2023-06-04T10:30:40;0.70;;;0.57;;
30337;SDS011;17143;51.888;5.408;2023-06-04T10:45:42;2.13;;;0.77;;
30337;SDS011;17143;51.888;5.408;2023-06-04T11:00:46;0.50;;;0.50;;
30337;SDS011;17143;51.888;5.408;2023-06-04T11:15:48;0.70;;;0.70;;
30337;SDS011;17143;51.888;5.408;2023-06-04T11:30:57;1.30;;;0.70;;
30337;SDS011;17143;51.888;5.408;2023-06-04T11:45:59;2.07;;;0.70;;
30337;SDS011;17143;51.888;5.408;2023-06-04T12:01:07;0.50;;;0.50;;
30337;SDS011;17143;51.888;5.408;2023-06-04T12:16:09;1.87;;;0.90;;
30337;SDS011;17143;51.888;5.408;2023-06-04T12:31:16;0.73;;;0.40;;
30337;SDS011;17143;51.888;5.408;2023-06-04T12:46:19;0.80;;;0.80;;
30337;SDS011;17143;51.888;5.408;2023-06-04T13:01:21;1.03;;;0.70;;
30337;SDS011;17143;51.888;5.408;2023-06-04T13:16:23;1.83;;;0.80;;
30337;SDS011;17143;51.888;5.408;2023-06-04T13:31:25;1.93;;;1.00;;
30337;SDS011;17143;51.888;5.408;2023-06-04T13:46:27;1.07;;;0.63;;
30337;SDS011;17143;51.888;5.408;2023-06-04T14:01:29;2.73;;;0.60;;
30337;SDS011;17143;51.888;5.408;2023-06-04T14:16:31;1.10;;;0.73;;
30337;SDS011;17143;51.888;5.408;2023-06-04T14:31:33;2.10;;;0.83;;
30337;SDS011;17143;51.888;5.408;2023-06-04T14:46:35;3.13;;;1.00;;
30337;SDS011;17143;51.888;5.408;2023-06-04T15:01:38;6.07;;;2.03;;
30337;SDS011;17143;51.888;5.408;2023-06-04T15:16:40;1.57;;;0.80;;
30337;SDS011;17143;51.888;5.408;2023-06-04T15:31:42;1.23;;;0.80;;
30337;SDS011;17143;51.888;5.408;2023-06-04T15:46:44;2.83;;;0.93;;
30337;SDS011;17143;51.888;5.408;2023-06-04T16:01:46;1.77;;;0.80;;
30337;SDS011;17143;51.888;5.408;2023-06-04T16:16:48;2.60;;;0.87;;
30337;SDS011;17143;51.888;5.408;2023-06-04T16:31:50;1.67;;;0.77;;
30337;SDS011;17143;51.888;5.408;2023-06-04T16:46:52;4.17;;;1.00;;
30337;SDS011;17143;51.888;5.408;2023-06-04T17:01:54;2.07;;;1.00;;
30337;SDS011;17143;51.888;5.408;2023-06-04T17:16:56;1.87;;;1.10;;
30337;SDS011;17143;51.888;5.408;2023-06-04T17:31:58;2.50;;;1.20;;
30337;SDS011;17143;51.888;5.408;2023-06-04T17:47:00;1.90;;;0.73;;
30337;SDS011;17143;51.888;5.408;2023-06-04T18:02:02;2.33;;;1.17;;
30337;SDS011;17143;51.888;5.408;2023-06-04T18:17:05;2.53;;;1.13;;
30337;SDS011;17143;51.888;5.408;2023-06-04T18:32:08;1.10;;;0.90;;
30337;SDS011;17143;51.888;5.408;2023-06-04T18:47:10;3.47;;;1.30;;
30337;SDS011;17143;51.888;5.408;2023-06-04T19:02:12;0.90;;;0.73;;
30337;SDS011;17143;51.888;5.408;2023-06-04T19:17:17;3.57;;;0.70;;
30337;SDS011;17143;51.888;5.408;2023-06-04T19:32:20;1.90;;;1.00;;
30337;SDS011;17143;51.888;5.408;2023-06-04T19:47:22;2.53;;;1.00;;
30337;SDS011;17143;51.888;5.408;2023-06-04T20:02:24;1.97;;;1.07;;
30337;SDS011;17143;51.888;5.408;2023-06-04T20:17:26;1.67;;;1.00;;
30337;SDS011;17143;51.888;5.408;2023-06-04T20:32:28;3.37;;;1.23;;
30337;SDS011;17143;51.888;5.408;2023-06-04T20:47:30;2.43;;;1.20;;
30337;SDS011;17143;51.888;5.408;2023-06-04T21:02:32;3.13;;;1.07;;
30337;SDS011;17143;51.888;5.408;2023-06-04T21:17:34;1.80;;;1.40;;
30337;SDS011;17143;51.888;5.408;2023-06-04T21:32:36;2.70;;;1.27;;
30337;SDS011;17143;51.888;5.408;2023-06-04T21:47:38;5.00;;;1.53;;
30337;SDS011;17143;51.888;5.408;2023-06-04T22:02:41;1.20;;;1.10;;
30337;SDS011;17143;51.888;5.408;2023-06-04T22:17:43;4.23;;;1.80;;
30337;SDS011;17143;51.888;5.408;2023-06-04T22:32:45;3.33;;;1.40;;
30337;SDS011;17143;51.888;5.408;2023-06-04T22:47:47;3.90;;;1.57;;
30337;SDS011;17143;51.888;5.408;2023-06-04T23:02:49;4.80;;;2.57;;
30337;SDS011;17143;51.888;5.408;2023-06-04T23:17:51;4.83;;;2.30;;
30337;SDS011;17143;51.888;5.408;2023-06-04T23:32:53;2.90;;;1.70;;
30337;SDS011;17143;51.888;5.408;2023-06-04T23:47:56;4.73;;;1.70;;
